Aeroporto :
LOGIN :

Iscrizione | Disclaimer

   EN    FR    IT 

 










Sommario :    VFR   VFR Marginale   IFR   IFR Intensivo   IFR Molto Intensivo
Visibilità : 
Base nubi : 
>= 8 km
>= 3000ft
5 / 8 km
1000 / 3000 ft
1500m / 5 km
500 / 1000 ft
800 / 1500m
200 / 500 ft
< 800m
< 200 ft
Simboli :   Temporali  Nebbia  Neve Forte  Precipitazioni Forti  Vento > 20 kt
SIGMETs :   Varie  Temporali  Ghiacco  Turbolenza  Onda orograficha  Ceneri Vulcaniche






- Altitudine del aeroporto : 503 ft
- Codice IATA : BLE


ESSD - Borlange

ULTIMO METAR :
  • 280650Z 06003KT 9999 OVC005 01/01 Q0994

METARs OBSOLETI :
  • 280620Z AUTO 06003KT 9999 OVC006/// 01/01 Q0994
  • 280550Z AUTO VRB02KT 9999 OVC005/// 02/01 Q0994
  • 280520Z AUTO 16005KT 9999 BKN005/// OVC007/// 01/01 Q0994
  • 280450Z AUTO 17006KT 9999 SCT006/// BKN008/// 01/01 Q0994
  • 280420Z AUTO 15005KT 9999 FEW009/// 01/01 Q0994
  • 280350Z AUTO 15004KT 9999 SCT021/// OVC082/// 02/01 Q0994

TAF TAF ESSD
Valido dal 28 a 07 ore il 28 a 15 ore UTC


280630Z 2807/2815 14006KT 9999 OVC006
PROB40 2807/2809 BKN015
TEMPO 2809/2813 BKN004
BECMG 2813/2815 4000 RA BKN004



MetMap, La meteo Aeronautica in un colpo d'occhio ! - Copyright ORBIFLY Dicembre 2007 - Disclaimer

ORBIFLY MET'MAP TEAM :

Programmazione e sviluppo : Alexandra Zaïnal
Concezione : Baudouin d'Aumeries
Aiuto per la programmazione : Marc-Olivier Méhu
Supporto tecnico e logistico : Manuel Goepfert
Aiuto per la traduzione : Arnaldo La Scala

Contatto : metmap@orbifly.com




FONTI E CREDITI :

   NOAA